Time;durP1;ratioP1;P1;durP2;ratioP2;P2;SDS_P1;SDS_P2;PMS_P1;PMS_P2;Temp;Humidity;BMP_temperature;BMP_pressure;BME280_temperature;BME280_humidity;BME280_pressure;Samples;Min_cycle;Max_cycle;Signal;HPM_P1;HPM_P2
2023/09/16 00:00:38;;;;;;;6.50;5.90;;;15.50;99.90;;;;;;5058060;28;20446;-76
2023/09/16 00:03:06;;;;;;;6.97;6.23;;;15.50;99.90;;;;;;5054906;28;21027;-77
2023/09/16 00:05:38;;;;;;;6.60;6.10;;;15.50;99.90;;;;;;5055866;28;20438;-77
2023/09/16 00:08:07;;;;;;;6.67;6.00;;;15.50;99.90;;;;;;5054872;28;20397;-76
2023/09/16 00:10:36;;;;;;;6.87;6.27;;;15.50;99.90;;;;;;5053306;28;20896;-77
2023/09/16 00:13:04;;;;;;;6.80;6.20;;;15.50;99.90;;;;;;5054694;28;20470;-77
2023/09/16 00:15:32;;;;;;;7.83;6.20;;;15.50;99.90;;;;;;5054412;28;20444;-77
2023/09/16 00:18:01;;;;;;;7.03;6.43;;;15.50;99.90;;;;;;5054348;28;20829;-77
2023/09/16 00:20:29;;;;;;;7.27;6.57;;;15.50;99.90;;;;;;5054290;28;20525;-77
2023/09/16 00:22:59;;;;;;;5.70;5.20;;;15.50;99.90;;;;;;5054298;28;20469;-77
2023/09/16 00:25:27;;;;;;;6.37;5.87;;;15.50;99.90;;;;;;5054234;28;20491;-77
2023/09/16 00:27:55;;;;;;;6.80;6.20;;;15.50;99.90;;;;;;5053140;28;20874;-77
2023/09/16 00:30:23;;;;;;;6.80;6.20;;;15.50;99.90;;;;;;5052796;28;20452;-77
2023/09/16 00:32:51;;;;;;;6.47;5.90;;;15.50;99.90;;;;;;5052816;28;20870;-77
2023/09/16 00:35:19;;;;;;;6.83;6.23;;;15.50;99.90;;;;;;5052894;28;20955;-77
2023/09/16 00:37:48;;;;;;;7.40;6.23;;;15.50;99.90;;;;;;5052571;28;20455;-77
2023/09/16 00:40:18;;;;;;;6.73;6.13;;;15.50;99.90;;;;;;5053880;28;20442;-77
2023/09/16 00:42:47;;;;;;;7.80;7.10;;;15.50;99.90;;;;;;5053876;28;20457;-77
2023/09/16 00:45:15;;;;;;;7.33;6.43;;;15.50;99.90;;;;;;5053722;28;20531;-76
2023/09/16 00:47:43;;;;;;;7.20;6.20;;;15.50;99.90;;;;;;5052527;28;20451;-76
2023/09/16 00:50:13;;;;;;;7.27;6.67;;;15.50;99.90;;;;;;5052028;28;20452;-77
2023/09/16 00:52:45;;;;;;;6.77;6.27;;;15.60;99.90;;;;;;5052463;28;20434;-76
2023/09/16 00:55:15;;;;;;;6.67;6.07;;;15.60;99.90;;;;;;5053878;28;20439;-77
2023/09/16 00:57:48;;;;;;;6.97;6.37;;;15.60;99.90;;;;;;5052295;28;20472;-77
2023/09/16 01:00:17;;;;;;;7.47;6.30;;;15.60;99.90;;;;;;5053806;28;20525;-77
2023/09/16 01:02:46;;;;;;;7.10;6.40;;;15.50;99.90;;;;;;5052296;28;20482;-77
2023/09/16 01:05:15;;;;;;;7.33;6.63;;;15.50;99.90;;;;;;5053411;28;20453;-77
2023/09/16 01:07:45;;;;;;;7.53;6.83;;;15.50;99.90;;;;;;5053457;28;20458;-77
2023/09/16 01:10:15;;;;;;;7.73;7.13;;;15.50;99.90;;;;;;5052418;28;20487;-77
2023/09/16 01:12:45;;;;;;;7.93;7.10;;;15.50;99.90;;;;;;5053429;28;20842;-77
2023/09/16 01:15:14;;;;;;;7.97;7.20;;;15.50;99.90;;;;;;5051966;28;20470;-77
2023/09/16 01:17:47;;;;;;;7.23;6.53;;;15.50;99.90;;;;;;5052321;28;21021;-77
2023/09/16 01:20:18;;;;;;;8.03;7.20;;;15.50;99.90;;;;;;5053275;28;20414;-77
2023/09/16 01:22:48;;;;;;;7.37;6.60;;;15.40;99.90;;;;;;5053602;28;20432;-77
2023/09/16 01:25:17;;;;;;;6.40;5.80;;;15.40;99.90;;;;;;5053104;28;20456;-77
2023/09/16 01:27:45;;;;;;;7.03;6.40;;;15.40;99.90;;;;;;5051946;28;20549;-77
2023/09/16 01:30:15;;;;;;;7.17;6.50;;;15.40;99.90;;;;;;5052681;28;20429;-77
2023/09/16 01:32:50;;;;;;;7.47;6.77;;;15.40;99.90;;;;;;5051859;28;20453;-77
2023/09/16 01:35:21;;;;;;;7.57;6.87;;;15.40;99.90;;;;;;5054207;28;20511;-77
2023/09/16 01:37:51;;;;;;;7.67;6.83;;;15.30;99.90;;;;;;5051808;28;20959;-77
2023/09/16 01:40:23;;;;;;;7.60;6.80;;;15.30;99.90;;;;;;5051763;28;20442;-77
2023/09/16 01:42:52;;;;;;;7.20;6.50;;;15.30;99.90;;;;;;5051924;28;20892;-77
2023/09/16 01:45:20;;;;;;;7.80;7.00;;;15.20;99.90;;;;;;5052149;28;20471;-76
2023/09/16 01:47:49;;;;;;;8.10;7.33;;;15.20;99.90;;;;;;5055901;28;20816;-77
2023/09/16 01:50:18;;;;;;;7.03;6.43;;;15.20;99.90;;;;;;5055907;28;20867;-76
2023/09/16 01:52:48;;;;;;;7.20;6.30;;;15.20;99.90;;;;;;5055793;28;20469;-77
2023/09/16 01:55:16;;;;;;;8.27;7.57;;;15.20;99.90;;;;;;5056875;28;20545;-76
2023/09/16 01:57:46;;;;;;;8.33;7.53;;;15.10;99.90;;;;;;5055676;28;20446;-77
2023/09/16 02:00:14;;;;;;;7.20;6.60;;;15.10;99.90;;;;;;5055608;28;20424;-77
2023/09/16 02:02:42;;;;;;;8.43;7.20;;;15.10;99.90;;;;;;5056815;28;20444;-77
2023/09/16 02:05:11;;;;;;;7.70;7.00;;;15.10;99.90;;;;;;5056657;28;20561;-77
2023/09/16 02:07:40;;;;;;;9.00;7.50;;;15.00;99.90;;;;;;5056046;28;20452;-76
2023/09/16 02:10:09;;;;;;;8.77;7.73;;;15.00;99.90;;;;;;5055394;28;20504;-77
2023/09/16 02:12:38;;;;;;;7.97;7.17;;;15.00;99.90;;;;;;5055390;28;20516;-77
2023/09/16 02:15:11;;;;;;;7.97;7.30;;;15.00;99.90;;;;;;5055246;28;20958;-77
2023/09/16 02:17:40;;;;;;;7.37;6.77;;;15.00;99.90;;;;;;5055352;28;20430;-77
2023/09/16 02:20:11;;;;;;;6.90;6.40;;;15.00;99.90;;;;;;5055234;28;20453;-77
2023/09/16 02:22:40;;;;;;;7.60;6.90;;;14.90;99.90;;;;;;5055259;28;20492;-77
2023/09/16 02:25:08;;;;;;;7.37;6.73;;;14.90;99.90;;;;;;5057321;28;20473;-77
2023/09/16 02:27:36;;;;;;;7.97;7.37;;;14.90;99.90;;;;;;5055150;28;20477;-77
2023/09/16 02:30:06;;;;;;;7.13;6.50;;;14.90;99.90;;;;;;5055117;28;20487;-77
2023/09/16 02:32:36;;;;;;;8.33;7.63;;;14.90;99.90;;;;;;5055080;28;20521;-76
2023/09/16 02:35:04;;;;;;;8.50;7.77;;;14.80;99.90;;;;;;5054788;28;20466;-77
2023/09/16 02:37:32;;;;;;;7.57;6.97;;;14.80;99.90;;;;;;5055257;28;20477;-77
2023/09/16 02:40:02;;;;;;;8.03;7.20;;;14.80;99.90;;;;;;5054845;28;20454;-77
2023/09/16 02:42:30;;;;;;;8.43;7.77;;;14.80;99.90;;;;;;5054719;28;20551;-77
2023/09/16 02:44:59;;;;;;;7.70;7.00;;;14.70;99.90;;;;;;5056464;28;20478;-77
2023/09/16 02:47:29;;;;;;;8.17;7.47;;;14.70;99.90;;;;;;5055876;28;20420;-77
2023/09/16 02:50:02;;;;;;;8.57;7.87;;;14.70;99.90;;;;;;5054767;28;20446;-77
2023/09/16 02:52:31;;;;;;;8.47;7.10;;;14.70;99.90;;;;;;5054683;28;20437;-77
2023/09/16 02:54:59;;;;;;;7.20;6.60;;;14.70;99.90;;;;;;5054543;28;20425;-77
2023/09/16 02:57:27;;;;;;;8.93;8.13;;;14.70;99.90;;;;;;5054680;28;20438;-77
2023/09/16 02:59:56;;;;;;;8.77;7.97;;;14.70;99.90;;;;;;5056105;28;20491;-77
2023/09/16 03:02:24;;;;;;;8.40;7.70;;;14.60;99.90;;;;;;5055855;28;20438;-77
2023/09/16 03:04:52;;;;;;;7.97;7.37;;;14.60;99.90;;;;;;5060092;28;20478;-76
2023/09/16 03:07:22;;;;;;;9.07;8.27;;;14.60;99.90;;;;;;5056301;28;20442;-76
2023/09/16 03:09:50;;;;;;;7.70;6.90;;;14.60;99.90;;;;;;5055860;28;20483;-77
2023/09/16 03:12:18;;;;;;;8.30;7.60;;;14.60;99.90;;;;;;5054425;28;20481;-77
2023/09/16 03:14:48;;;;;;;8.53;7.80;;;14.60;99.90;;;;;;5054318;28;20477;-76
2023/09/16 03:17:16;;;;;;;8.40;7.70;;;14.50;99.90;;;;;;5054228;28;20472;-76
2023/09/16 03:19:44;;;;;;;7.50;6.80;;;14.50;99.90;;;;;;5054236;28;20450;-76
2023/09/16 03:22:12;;;;;;;7.90;7.20;;;14.50;99.90;;;;;;5054319;28;21017;-76
2023/09/16 03:24:42;;;;;;;8.27;7.50;;;14.50;99.90;;;;;;5054119;28;20466;-77
2023/09/16 03:27:11;;;;;;;7.93;7.27;;;14.50;99.90;;;;;;5054067;28;20529;-76
2023/09/16 03:29:39;;;;;;;7.87;7.17;;;14.40;99.90;;;;;;5053926;28;20446;-76
2023/09/16 03:32:07;;;;;;;8.00;7.30;;;14.40;99.90;;;;;;5054101;28;20445;-76
2023/09/16 03:34:36;;;;;;;8.03;7.33;;;14.40;99.90;;;;;;5053844;28;20462;-77
2023/09/16 03:37:04;;;;;;;8.30;7.50;;;14.40;99.90;;;;;;5053894;28;20453;-76
2023/09/16 03:39:33;;;;;;;8.17;7.37;;;14.40;99.90;;;;;;5053827;28;20500;-76
2023/09/16 03:42:03;;;;;;;7.33;6.63;;;14.40;99.90;;;;;;5053797;28;20511;-77
2023/09/16 03:44:31;;;;;;;7.87;7.03;;;14.30;99.90;;;;;;5053675;28;20508;-76
2023/09/16 03:46:59;;;;;;;7.70;7.00;;;14.30;99.90;;;;;;5055163;28;20906;-76
2023/09/16 03:49:30;;;;;;;7.70;7.10;;;14.30;99.90;;;;;;5053677;28;20890;-76
2023/09/16 03:51:58;;;;;;;8.43;7.73;;;14.30;99.90;;;;;;5053726;28;20820;-76
2023/09/16 03:54:27;;;;;;;8.43;7.73;;;14.30;99.90;;;;;;5053543;28;21005;-76
2023/09/16 03:56:56;;;;;;;8.13;7.43;;;14.30;99.90;;;;;;5056874;28;20452;-77
2023/09/16 03:59:25;;;;;;;8.20;7.50;;;14.20;99.90;;;;;;5058396;28;20458;-77
2023/09/16 04:01:53;;;;;;;8.67;7.97;;;14.20;99.90;;;;;;5056990;28;20438;-77
2023/09/16 04:04:21;;;;;;;9.33;8.53;;;14.20;99.90;;;;;;5056099;28;20470;-77
2023/09/16 04:06:50;;;;;;;8.13;7.30;;;14.20;99.90;;;;;;5055481;28;20493;-77
2023/09/16 04:09:19;;;;;;;9.23;8.43;;;14.20;99.90;;;;;;5055844;28;20434;-77
2023/09/16 04:11:47;;;;;;;9.90;8.90;;;14.20;99.90;;;;;;5054700;28;20499;-77
2023/09/16 04:14:15;;;;;;;9.57;8.67;;;14.10;99.90;;;;;;5054631;28;20500;-76
2023/09/16 04:16:47;;;;;;;10.20;9.20;;;14.10;99.90;;;;;;5054427;28;20450;-77
2023/09/16 04:19:17;;;;;;;11.00;9.90;;;14.10;99.90;;;;;;5055126;28;20505;-77
2023/09/16 04:21:46;;;;;;;11.10;10.00;;;14.10;99.90;;;;;;5053322;28;20450;-76
2023/09/16 04:24:14;;;;;;;12.00;10.83;;;14.10;99.90;;;;;;5054639;28;20541;-76
2023/09/16 04:26:42;;;;;;;10.00;9.00;;;14.10;99.90;;;;;;5052961;28;20466;-76
2023/09/16 04:29:10;;;;;;;8.90;8.20;;;14.10;99.90;;;;;;5053046;28;20533;-77
2023/09/16 04:31:39;;;;;;;10.07;9.17;;;14.00;99.90;;;;;;5053135;28;20461;-77
2023/09/16 04:34:08;;;;;;;8.33;7.63;;;14.00;99.90;;;;;;5052964;28;20465;-77
2023/09/16 04:36:39;;;;;;;9.03;8.23;;;14.00;99.90;;;;;;5053233;28;20442;-77
2023/09/16 04:39:08;;;;;;;10.23;9.33;;;14.00;99.90;;;;;;5052828;28;21024;-77
2023/09/16 04:41:37;;;;;;;9.03;8.20;;;14.00;99.90;;;;;;5052775;28;20906;-77
2023/09/16 04:44:08;;;;;;;8.50;7.70;;;13.90;99.90;;;;;;5052811;28;20473;-76
2023/09/16 04:46:36;;;;;;;9.17;8.27;;;13.90;99.90;;;;;;5052813;28;20809;-77
2023/09/16 04:49:09;;;;;;;8.77;7.87;;;13.90;99.90;;;;;;5052701;28;20496;-77
2023/09/16 04:51:38;;;;;;;8.73;8.03;;;13.90;99.90;;;;;;5052602;28;20482;-77
2023/09/16 04:54:07;;;;;;;9.27;8.47;;;13.90;99.90;;;;;;5052432;28;20504;-76
2023/09/16 04:56:35;;;;;;;8.53;7.77;;;13.90;99.90;;;;;;5052379;28;20442;-76
2023/09/16 04:59:04;;;;;;;8.67;7.87;;;13.90;99.90;;;;;;5052266;28;20528;-76
2023/09/16 05:01:33;;;;;;;8.67;7.97;;;13.90;99.90;;;;;;5052285;28;20449;-77
2023/09/16 05:04:01;;;;;;;8.93;7.87;;;13.90;99.90;;;;;;5052173;28;20545;-76
2023/09/16 05:06:33;;;;;;;9.00;8.27;;;13.90;99.90;;;;;;5052248;28;20477;-77
2023/09/16 05:09:02;;;;;;;8.30;7.57;;;13.90;99.90;;;;;;5053433;28;20433;-77
2023/09/16 05:11:31;;;;;;;8.27;7.47;;;13.90;99.90;;;;;;5052241;28;20792;-76
2023/09/16 05:14:02;;;;;;;10.30;9.40;;;13.90;99.90;;;;;;5052441;28;20473;-76
2023/09/16 05:16:30;;;;;;;9.60;8.70;;;13.90;99.90;;;;;;5052079;28;20453;-76
2023/09/16 05:19:06;;;;;;;8.57;7.87;;;13.90;99.90;;;;;;5052155;28;20430;-76
2023/09/16 05:21:36;;;;;;;8.43;7.73;;;13.90;99.90;;;;;;5051507;28;20830;-77
2023/09/16 05:24:05;;;;;;;8.97;8.17;;;13.90;99.90;;;;;;5051949;28;20503;-76
2023/09/16 05:26:33;;;;;;;9.90;9.00;;;13.90;99.90;;;;;;5051912;28;20504;-76
2023/09/16 05:29:01;;;;;;;10.63;9.63;;;13.90;99.90;;;;;;5053222;28;20438;-77
2023/09/16 05:31:31;;;;;;;10.10;9.30;;;13.90;99.90;;;;;;5051933;28;20442;-76
2023/09/16 05:34:00;;;;;;;9.50;8.70;;;13.90;99.90;;;;;;5051810;28;20564;-77
2023/09/16 05:36:29;;;;;;;10.17;9.27;;;13.90;99.90;;;;;;5051902;28;20438;-77
2023/09/16 05:39:00;;;;;;;9.30;8.50;;;13.90;99.90;;;;;;5051786;28;20860;-77
2023/09/16 05:41:29;;;;;;;9.87;9.03;;;14.00;99.90;;;;;;5053343;28;20868;-77
2023/09/16 05:43:58;;;;;;;10.27;9.37;;;14.00;99.90;;;;;;5051891;28;20905;-76
2023/09/16 05:46:26;;;;;;;10.23;9.43;;;14.00;99.90;;;;;;5051671;28;20548;-77
2023/09/16 05:49:06;;;;;;;9.80;9.00;;;14.00;99.90;;;;;;5051683;28;20438;-77
2023/09/16 05:51:35;;;;;;;8.40;7.70;;;14.00;99.90;;;;;;5051745;28;20509;-76
2023/09/16 05:54:05;;;;;;;8.97;8.20;;;14.00;99.90;;;;;;5052961;28;20489;-76
2023/09/16 05:56:37;;;;;;;9.80;9.00;;;14.00;99.90;;;;;;5051702;28;20921;-76
2023/09/16 05:59:05;;;;;;;9.20;8.40;;;14.10;99.90;;;;;;5051773;28;20434;-76
2023/09/16 06:01:34;;;;;;;9.30;8.50;;;14.10;99.90;;;;;;5051684;28;20438;-77
2023/09/16 06:04:03;;;;;;;9.67;8.33;;;14.10;99.90;;;;;;5055329;28;20520;-76
2023/09/16 06:06:32;;;;;;;10.10;9.13;;;14.10;99.90;;;;;;5057081;28;20474;-76
2023/09/16 06:09:00;;;;;;;10.37;9.37;;;14.20;99.90;;;;;;5052723;28;20473;-77
2023/09/16 06:11:30;;;;;;;10.77;9.80;;;14.20;99.90;;;;;;5052512;28;20472;-76
2023/09/16 06:13:58;;;;;;;10.27;9.37;;;14.20;99.90;;;;;;5052943;28;20472;-76
2023/09/16 06:16:26;;;;;;;10.20;9.40;;;14.20;99.90;;;;;;5051648;28;20448;-77
2023/09/16 06:18:54;;;;;;;10.10;8.43;;;14.30;99.90;;;;;;5052206;28;20489;-77
2023/09/16 06:21:24;;;;;;;10.00;9.20;;;14.30;99.90;;;;;;5051606;28;20528;-76
2023/09/16 06:23:52;;;;;;;10.03;9.23;;;14.30;99.90;;;;;;5052678;28;20556;-76
2023/09/16 06:26:20;;;;;;;10.83;9.70;;;14.30;99.90;;;;;;5051383;28;20477;-76
2023/09/16 06:28:49;;;;;;;9.40;8.47;;;14.40;99.90;;;;;;5053087;28;20460;-76
2023/09/16 06:31:18;;;;;;;8.37;7.57;;;14.40;99.90;;;;;;5051844;28;20830;-76
2023/09/16 06:33:49;;;;;;;8.73;8.10;;;14.40;99.90;;;;;;5055027;28;20472;-76
2023/09/16 06:36:18;;;;;;;10.73;9.90;;;14.40;99.90;;;;;;5054820;28;20442;-76
2023/09/16 06:38:46;;;;;;;9.80;9.00;;;14.50;99.90;;;;;;5056171;28;20434;-76
2023/09/16 06:41:16;;;;;;;10.93;9.93;;;14.50;99.90;;;;;;5055237;28;20887;-77
2023/09/16 06:43:44;;;;;;;10.23;9.33;;;14.50;99.90;;;;;;5054712;28;21027;-77
2023/09/16 06:46:13;;;;;;;9.90;9.10;;;14.50;99.90;;;;;;5054651;28;20478;-77
2023/09/16 06:48:42;;;;;;;10.27;9.27;;;14.60;99.90;;;;;;5054696;28;20533;-77
2023/09/16 06:51:10;;;;;;;10.87;9.97;;;14.60;99.90;;;;;;5054724;28;20525;-77
2023/09/16 06:53:38;;;;;;;9.90;9.00;;;14.60;99.90;;;;;;5054675;28;20454;-77
2023/09/16 06:56:06;;;;;;;9.80;8.90;;;14.70;99.90;;;;;;5054635;28;20446;-77
2023/09/16 06:58:34;;;;;;;9.67;8.73;;;14.70;99.90;;;;;;5056429;28;20487;-77
2023/09/16 07:01:09;;;;;;;10.53;9.60;;;14.70;99.90;;;;;;5055172;28;20537;-75
2023/09/16 07:03:39;;;;;;;10.00;9.20;;;14.70;99.90;;;;;;5054936;28;20469;-75
2023/09/16 07:06:07;;;;;;;10.47;9.57;;;14.80;99.90;;;;;;5054571;28;20940;-77
2023/09/16 07:08:35;;;;;;;11.83;10.73;;;14.80;99.90;;;;;;5054818;28;20830;-76
2023/09/16 07:11:03;;;;;;;14.07;12.63;;;14.80;99.90;;;;;;5054838;28;20878;-77
2023/09/16 07:13:31;;;;;;;11.27;10.27;;;14.90;99.90;;;;;;5054832;28;20523;-75
2023/09/16 07:15:59;;;;;;;9.97;9.10;;;14.90;99.90;;;;;;5054370;28;20941;-76
2023/09/16 07:18:28;;;;;;;11.93;10.93;;;14.90;99.90;;;;;;5054393;28;20488;-76
2023/09/16 07:20:57;;;;;;;11.20;10.20;;;14.90;99.90;;;;;;5056181;28;20438;-75
2023/09/16 07:23:26;;;;;;;12.00;10.90;;;15.00;99.90;;;;;;5054489;28;20458;-76
2023/09/16 07:25:55;;;;;;;11.67;10.57;;;15.00;99.90;;;;;;5055533;28;20438;-76
2023/09/16 07:28:24;;;;;;;10.90;10.00;;;15.10;99.90;;;;;;5053950;28;20466;-76
2023/09/16 07:30:52;;;;;;;14.10;12.63;;;15.10;99.90;;;;;;5054752;28;20808;-76
2023/09/16 07:33:20;;;;;;;15.73;14.23;;;15.10;99.90;;;;;;5055594;28;20545;-77
2023/09/16 07:35:51;;;;;;;12.60;11.33;;;15.10;99.90;;;;;;5054096;28;20533;-77
2023/09/16 07:38:20;;;;;;;12.37;11.00;;;15.20;99.90;;;;;;5055862;28;20426;-77
2023/09/16 07:40:52;;;;;;;10.67;9.30;;;15.20;99.90;;;;;;5055648;28;20800;-76
2023/09/16 07:43:20;;;;;;;10.73;9.60;;;15.20;99.90;;;;;;5054640;28;20895;-76
2023/09/16 07:45:48;;;;;;;9.70;8.90;;;15.20;99.90;;;;;;5055329;28;20448;-75
2023/09/16 07:48:17;;;;;;;14.53;9.10;;;15.30;99.90;;;;;;5054947;28;20470;-76
2023/09/16 07:50:47;;;;;;;9.40;8.60;;;15.30;99.90;;;;;;5056335;28;20463;-76
2023/09/16 07:53:15;;;;;;;10.07;9.17;;;15.30;99.90;;;;;;5055711;28;20985;-77
2023/09/16 07:55:44;;;;;;;9.50;8.70;;;15.30;99.90;;;;;;5056657;28;20832;-76
2023/09/16 07:58:12;;;;;;;10.07;9.17;;;15.40;99.90;;;;;;5055147;28;20472;-75
2023/09/16 08:00:41;;;;;;;8.60;7.90;;;15.40;99.90;;;;;;5054698;28;20421;-76
2023/09/16 08:03:09;;;;;;;9.63;8.80;;;15.50;99.90;;;;;;5054951;28;20416;-76
2023/09/16 08:05:37;;;;;;;9.77;8.97;;;15.50;99.90;;;;;;5054869;28;20496;-76
2023/09/16 08:08:05;;;;;;;13.43;9.67;;;15.50;99.90;;;;;;5055135;28;20935;-76
2023/09/16 08:10:33;;;;;;;11.13;10.03;;;15.50;99.90;;;;;;5053796;28;20500;-76
2023/09/16 08:13:03;;;;;;;10.30;9.40;;;15.60;99.90;;;;;;5053710;28;20446;-76
2023/09/16 08:15:31;;;;;;;10.00;8.80;;;15.60;99.90;;;;;;5053654;28;20446;-76
2023/09/16 08:18:00;;;;;;;9.90;9.00;;;15.60;99.90;;;;;;5053721;28;20497;-76
2023/09/16 08:20:28;;;;;;;12.70;11.50;;;15.60;99.90;;;;;;5054719;28;20438;-76
2023/09/16 08:22:56;;;;;;;13.90;12.50;;;15.70;99.90;;;;;;5054896;28;20499;-76
2023/09/16 08:25:25;;;;;;;12.20;11.10;;;15.70;99.90;;;;;;5054364;28;20458;-76
2023/09/16 08:27:53;;;;;;;10.27;9.33;;;15.80;99.90;;;;;;5054429;28;20469;-76
2023/09/16 08:30:23;;;;;;;9.20;8.40;;;15.80;99.90;;;;;;5054734;28;20430;-75
2023/09/16 08:32:51;;;;;;;10.83;9.90;;;15.90;99.90;;;;;;5054677;28;20480;-75
2023/09/16 08:35:21;;;;;;;10.10;8.00;;;15.90;99.90;;;;;;5055313;28;20432;-75
2023/09/16 08:37:49;;;;;;;10.00;9.10;;;15.90;99.90;;;;;;5053437;28;20446;-76
2023/09/16 08:40:17;;;;;;;9.17;8.30;;;16.00;99.90;;;;;;5054328;28;20495;-76
2023/09/16 08:42:50;;;;;;;10.40;9.40;;;16.00;99.90;;;;;;5054211;28;20519;-75
2023/09/16 08:45:26;;;;;;;9.10;8.30;;;16.10;99.90;;;;;;5054229;28;20439;-75
2023/09/16 08:48:01;;;;;;;9.33;8.53;;;16.10;99.90;;;;;;5054524;28;20428;-76
2023/09/16 08:50:32;;;;;;;9.70;8.87;;;16.20;99.90;;;;;;5054533;28;20396;-76
2023/09/16 08:53:04;;;;;;;8.93;8.13;;;16.20;99.90;;;;;;5052766;28;20450;-75
2023/09/16 08:55:34;;;;;;;9.43;8.63;;;16.30;99.90;;;;;;5053305;28;20392;-76
2023/09/16 08:58:05;;;;;;;9.90;9.00;;;16.30;99.90;;;;;;5053073;28;20938;-75
2023/09/16 09:00:35;;;;;;;10.00;9.10;;;16.40;99.90;;;;;;5053802;28;20442;-76
2023/09/16 09:03:03;;;;;;;9.63;8.73;;;16.50;99.90;;;;;;5054305;28;20417;-76
2023/09/16 09:05:34;;;;;;;8.93;8.03;;;16.50;99.90;;;;;;5054707;28;20457;-76
2023/09/16 09:08:03;;;;;;;9.57;8.77;;;16.60;99.90;;;;;;5055048;28;20834;-76
2023/09/16 09:10:31;;;;;;;10.63;9.70;;;16.60;99.90;;;;;;5056000;28;20425;-76
2023/09/16 09:13:00;;;;;;;9.27;8.47;;;16.70;99.90;;;;;;5059303;28;20474;-76
2023/09/16 09:15:29;;;;;;;8.73;7.83;;;16.80;99.90;;;;;;5056242;28;20404;-76
2023/09/16 09:17:59;;;;;;;9.07;8.27;;;16.80;99.90;;;;;;5055055;28;20409;-76
2023/09/16 09:20:28;;;;;;;9.47;8.50;;;16.90;99.90;;;;;;5054699;28;20889;-76
2023/09/16 09:22:58;;;;;;;10.00;8.90;;;17.00;99.90;;;;;;5055229;28;20525;-76
2023/09/16 09:25:27;;;;;;;10.20;9.20;;;17.00;99.90;;;;;;5054658;28;20405;-76
2023/09/16 09:27:57;;;;;;;8.93;8.23;;;17.10;99.90;;;;;;5052884;28;20565;-76
2023/09/16 09:30:27;;;;;;;8.27;7.57;;;17.10;99.90;;;;;;5054565;28;20409;-76
2023/09/16 09:32:56;;;;;;;9.00;8.07;;;17.20;99.90;;;;;;5054582;28;20424;-76
2023/09/16 09:35:27;;;;;;;8.40;7.70;;;17.30;99.90;;;;;;5053433;28;20795;-76
2023/09/16 09:37:56;;;;;;;7.90;7.30;;;17.40;99.90;;;;;;5054431;28;20415;-76
2023/09/16 09:40:25;;;;;;;8.03;7.23;;;17.40;99.90;;;;;;5054636;28;20408;-76
2023/09/16 09:42:55;;;;;;;8.10;7.30;;;17.50;99.90;;;;;;5052649;28;20507;-76
2023/09/16 09:45:27;;;;;;;12.00;10.57;;;17.60;99.90;;;;;;5052696;28;20447;-76
2023/09/16 09:47:56;;;;;;;10.03;9.07;;;17.70;99.90;;;;;;5052973;28;20504;-76
2023/09/16 09:50:26;;;;;;;8.43;7.73;;;17.70;99.90;;;;;;5054765;28;20446;-76
2023/09/16 09:52:55;;;;;;;9.03;8.20;;;17.80;99.90;;;;;;5053171;28;20451;-76
2023/09/16 09:55:29;;;;;;;7.67;6.97;;;18.00;99.90;;;;;;5054106;28;20461;-75
2023/09/16 09:57:57;;;;;;;9.37;8.43;;;18.10;99.90;;;;;;5054215;28;20385;-76
2023/09/16 10:00:26;;;;;;;9.50;7.50;;;18.20;99.90;;;;;;5052686;28;20453;-76
2023/09/16 10:02:57;;;;;;;7.30;6.60;;;18.40;99.90;;;;;;5054177;28;20524;-76
2023/09/16 10:05:28;;;;;;;8.10;7.40;;;18.50;99.90;;;;;;5053952;28;20893;-76
2023/09/16 10:07:56;;;;;;;7.93;7.33;;;18.60;99.90;;;;;;5055399;28;20412;-76
2023/09/16 10:10:26;;;;;;;7.57;6.80;;;18.70;99.90;;;;;;5055919;28;20495;-76
2023/09/16 10:12:56;;;;;;;7.07;6.37;;;18.70;99.90;;;;;;5056824;28;20512;-76
2023/09/16 10:15:25;;;;;;;6.30;5.70;;;18.80;99.90;;;;;;5056581;28;20464;-76
2023/09/16 10:17:53;;;;;;;6.63;6.07;;;18.90;99.90;;;;;;5056739;28;20800;-76
2023/09/16 10:20:23;;;;;;;7.20;6.60;;;19.00;99.90;;;;;;5057178;28;20524;-76
2023/09/16 10:22:53;;;;;;;7.30;6.70;;;19.10;99.90;;;;;;5055531;28;20529;-76
2023/09/16 10:25:23;;;;;;;6.73;6.00;;;19.20;99.90;;;;;;5056681;28;20900;-76
2023/09/16 10:27:56;;;;;;;7.27;6.67;;;19.30;99.90;;;;;;5056675;28;20916;-76
2023/09/16 10:30:25;;;;;;;7.10;6.50;;;19.40;99.90;;;;;;5057008;28;20413;-77
2023/09/16 10:32:54;;;;;;;6.30;5.80;;;19.40;99.90;;;;;;5055463;28;20442;-76
2023/09/16 10:35:22;;;;;;;6.63;6.03;;;19.50;99.90;;;;;;5055191;28;20466;-77
2023/09/16 10:37:53;;;;;;;7.73;6.40;;;19.60;99.90;;;;;;5056449;28;20440;-76
2023/09/16 10:40:21;;;;;;;6.30;5.67;;;19.70;99.90;;;;;;5055267;28;20497;-76
2023/09/16 10:42:51;;;;;;;6.23;5.63;;;19.80;99.90;;;;;;5055068;28;20511;-76
2023/09/16 10:45:19;;;;;;;6.80;6.20;;;19.90;99.90;;;;;;5055968;28;20462;-76
2023/09/16 10:47:49;;;;;;;6.70;6.00;;;20.00;99.90;;;;;;5055728;28;20963;-76
2023/09/16 10:50:18;;;;;;;5.80;5.30;;;20.00;99.90;;;;;;5054784;28;20211;-76
2023/09/16 10:52:51;;;;;;;6.33;5.80;;;20.20;99.90;;;;;;5055090;28;20442;-76
2023/09/16 10:55:27;;;;;;;6.57;5.97;;;20.20;99.90;;;;;;5054632;28;20566;-76
2023/09/16 10:58:02;;;;;;;6.23;5.73;;;20.30;99.90;;;;;;5055019;28;20779;-76
2023/09/16 11:00:37;;;;;;;6.20;5.60;;;20.40;99.90;;;;;;5054869;28;20446;-76
2023/09/16 11:03:06;;;;;;;6.50;5.37;;;20.50;99.90;;;;;;5055856;28;20426;-76
2023/09/16 11:05:36;;;;;;;6.30;5.70;;;20.60;99.90;;;;;;5054573;28;20812;-76
2023/09/16 11:08:08;;;;;;;5.40;4.90;;;20.60;99.90;;;;;;5054575;28;20464;-76
2023/09/16 11:10:38;;;;;;;5.60;5.07;;;20.70;99.90;;;;;;5055394;28;20813;-77
2023/09/16 11:13:07;;;;;;;6.27;5.77;;;20.80;99.90;;;;;;5055498;28;20466;-76
2023/09/16 11:15:36;;;;;;;5.80;5.20;;;20.90;99.90;;;;;;5055384;28;20441;-77
2023/09/16 11:18:08;;;;;;;6.90;6.20;;;21.00;99.90;;;;;;5056286;28;20442;-76
2023/09/16 11:20:39;;;;;;;5.47;5.00;;;21.00;99.90;;;;;;5054998;28;20453;-76
2023/09/16 11:23:08;;;;;;;5.43;5.00;;;21.10;99.90;;;;;;5056282;28;20771;-76
2023/09/16 11:25:38;;;;;;;6.13;5.50;;;21.20;99.90;;;;;;5054478;28;20450;-76
2023/09/16 11:28:09;;;;;;;5.37;4.87;;;21.20;99.90;;;;;;5055773;28;20433;-76
2023/09/16 11:30:38;;;;;;;5.50;4.97;;;21.30;99.90;;;;;;5054329;28;20462;-76
2023/09/16 11:33:25;;;;;;;5.00;4.50;;;21.40;99.90;;;;;;5055698;28;20493;-76
2023/09/16 11:36:13;;;;;;;5.27;4.87;;;21.50;99.90;;;;;;5056379;28;20429;-76
2023/09/16 11:38:54;;;;;;;4.93;4.53;;;21.50;99.90;;;;;;5056119;28;20434;-76
2023/09/16 11:41:24;;;;;;;3.87;3.57;;;21.60;99.90;;;;;;5054063;28;20495;-76
2023/09/16 11:43:53;;;;;;;4.10;3.70;;;21.70;99.90;;;;;;5055047;28;20507;-75
2023/09/16 11:46:21;;;;;;;4.80;4.27;;;21.80;99.90;;;;;;5054016;28;20453;-76
2023/09/16 11:48:52;;;;;;;4.50;4.10;;;22.00;99.90;;;;;;5053883;28;20549;-76
2023/09/16 11:51:23;;;;;;;4.80;4.40;;;22.10;99.90;;;;;;5055243;28;20426;-76
2023/09/16 11:53:53;;;;;;;6.47;5.97;;;22.20;99.90;;;;;;5053554;28;20505;-76
2023/09/16 11:56:25;;;;;;;3.40;3.10;;;22.30;99.90;;;;;;5054811;28;20434;-76
2023/09/16 11:58:54;;;;;;;5.03;3.90;;;22.40;99.90;;;;;;5055084;28;20525;-76
2023/09/16 12:01:24;;;;;;;4.13;3.73;;;22.50;99.90;;;;;;5053870;28;20442;-76
2023/09/16 12:03:55;;;;;;;4.83;4.40;;;22.50;99.90;;;;;;5054773;28;20461;-76
2023/09/16 12:06:25;;;;;;;5.30;3.80;;;22.60;99.90;;;;;;5053588;28;20465;-76
2023/09/16 12:08:56;;;;;;;4.00;3.70;;;22.70;99.90;;;;;;5055138;28;20422;-76
2023/09/16 12:11:26;;;;;;;4.80;4.27;;;22.90;99.90;;;;;;5059976;28;20441;-76
2023/09/16 12:13:58;;;;;;;4.70;4.30;;;22.90;99.90;;;;;;5057060;28;20462;-76
2023/09/16 12:16:27;;;;;;;5.20;4.70;;;23.00;99.90;;;;;;5055710;28;20492;-76
2023/09/16 12:18:56;;;;;;;4.50;4.10;;;23.10;99.90;;;;;;5055249;28;20473;-76
2023/09/16 12:21:24;;;;;;;4.70;4.30;;;23.20;99.90;;;;;;5055178;28;20442;-76
2023/09/16 12:23:53;;;;;;;4.87;3.90;;;23.30;99.90;;;;;;5054720;28;20454;-76
2023/09/16 12:26:22;;;;;;;4.90;4.03;;;23.30;99.90;;;;;;5054407;28;20437;-76
2023/09/16 12:28:51;;;;;;;6.10;5.17;;;23.40;99.90;;;;;;5054351;28;20461;-76
2023/09/16 12:31:24;;;;;;;5.63;4.10;;;23.40;99.90;;;;;;5054157;28;20569;-76
2023/09/16 12:33:54;;;;;;;4.70;4.30;;;23.50;99.90;;;;;;5054371;28;20974;-76
2023/09/16 12:36:27;;;;;;;3.80;3.50;;;23.50;99.90;;;;;;5053013;28;20488;-76
2023/09/16 12:38:56;;;;;;;4.70;4.30;;;23.60;99.90;;;;;;5054427;28;20464;-76
2023/09/16 12:41:26;;;;;;;4.83;4.27;;;23.70;99.90;;;;;;5054126;28;20430;-76
2023/09/16 12:43:57;;;;;;;4.60;4.30;;;23.70;99.90;;;;;;5054270;28;20462;-76
2023/09/16 12:46:28;;;;;;;7.20;6.50;;;23.80;99.90;;;;;;5053959;28;20419;-76
2023/09/16 12:48:58;;;;;;;7.77;4.37;;;23.80;99.90;;;;;;5052740;28;20431;-76
2023/09/16 12:51:29;;;;;;;4.20;3.80;;;23.90;99.90;;;;;;5053870;28;20986;-76
2023/09/16 12:53:59;;;;;;;4.87;4.40;;;23.90;99.90;;;;;;5052637;28;20466;-76